sensor_id;sensor_type;location;lat;lon;timestamp;pressure;altitude;pressure_sealevel;temperature;humidity
48796;BME280;34607;48.520;-1.330;2023-04-25T07:23:08;100175.81;;;10.04;93.61
48796;BME280;34607;48.520;-1.330;2023-04-25T07:25:36;100177.09;;;10.30;93.10
48796;BME280;34607;48.520;-1.330;2023-04-25T07:28:04;100179.75;;;10.34;91.90
48796;BME280;34607;48.520;-1.330;2023-04-25T07:30:31;100181.41;;;10.30;91.45
48796;BME280;34607;48.520;-1.330;2023-04-25T07:33:03;100182.25;;;10.29;92.02
48796;BME280;34607;48.520;-1.330;2023-04-25T07:35:30;100194.28;;;10.27;91.19
48796;BME280;34607;48.520;-1.330;2023-04-25T07:37:57;100184.06;;;10.32;91.12
48796;BME280;34607;48.520;-1.330;2023-04-25T07:40:26;100192.78;;;10.40;90.57
48796;BME280;34607;48.520;-1.330;2023-04-25T07:42:58;100200.63;;;10.46;90.22
48796;BME280;34607;48.520;-1.330;2023-04-25T07:45:38;100195.69;;;10.61;89.30
48796;BME280;34607;48.520;-1.330;2023-04-25T07:48:05;100198.31;;;10.64;88.48
48796;BME280;34607;48.520;-1.330;2023-04-25T07:50:35;100198.34;;;10.69;88.46
48796;BME280;34607;48.520;-1.330;2023-04-25T07:53:02;100189.81;;;10.78;87.50
48796;BME280;34607;48.520;-1.330;2023-04-25T07:55:41;100195.63;;;10.58;86.64
48796;BME280;34607;48.520;-1.330;2023-04-25T07:58:13;100205.66;;;10.35;85.63
48796;BME280;34607;48.520;-1.330;2023-04-25T08:00:44;100211.81;;;10.45;87.84
48796;BME280;34607;48.520;-1.330;2023-04-25T08:03:28;100209.47;;;10.60;87.95
48796;BME280;34607;48.520;-1.330;2023-04-25T08:05:57;100211.09;;;10.52;87.24
48796;BME280;34607;48.520;-1.330;2023-04-25T08:08:26;100223.16;;;10.53;87.55
48796;BME280;34607;48.520;-1.330;2023-04-25T08:10:55;100222.34;;;10.57;87.50
48796;BME280;34607;48.520;-1.330;2023-04-25T08:13:22;100216.56;;;10.75;87.48
48796;BME280;34607;48.520;-1.330;2023-04-25T08:15:49;100223.50;;;10.78;86.27
48796;BME280;34607;48.520;-1.330;2023-04-25T08:18:17;100211.44;;;10.78;85.86
48796;BME280;34607;48.520;-1.330;2023-04-25T08:20:45;100226.13;;;10.79;86.06
48796;BME280;34607;48.520;-1.330;2023-04-25T08:23:14;100223.63;;;10.87;84.96
48796;BME280;34607;48.520;-1.330;2023-04-25T08:25:52;100216.19;;;11.13;85.32
48796;BME280;34607;48.520;-1.330;2023-04-25T08:28:25;100223.66;;;11.67;83.91
48796;BME280;34607;48.520;-1.330;2023-04-25T08:30:53;100228.13;;;11.81;82.17
48796;BME280;34607;48.520;-1.330;2023-04-25T08:33:20;100228.84;;;11.67;81.92
48796;BME280;34607;48.520;-1.330;2023-04-25T08:36:07;100239.25;;;11.68;81.43
48796;BME280;34607;48.520;-1.330;2023-04-25T08:38:34;100242.63;;;11.61;81.48
48796;BME280;34607;48.520;-1.330;2023-04-25T08:41:05;100250.00;;;11.22;80.60
48796;BME280;34607;48.520;-1.330;2023-04-25T08:43:35;100254.22;;;11.14;81.78
48796;BME280;34607;48.520;-1.330;2023-04-25T08:46:02;100252.59;;;11.25;81.46
48796;BME280;34607;48.520;-1.330;2023-04-25T08:48:37;100253.66;;;11.40;81.38
48796;BME280;34607;48.520;-1.330;2023-04-25T08:51:05;100261.97;;;11.91;80.74
48796;BME280;34607;48.520;-1.330;2023-04-25T08:53:34;100258.88;;;12.33;79.36
48796;BME280;34607;48.520;-1.330;2023-04-25T08:56:03;100243.59;;;12.81;78.33
48796;BME280;34607;48.520;-1.330;2023-04-25T08:58:36;100255.78;;;12.85;76.48
48796;BME280;34607;48.520;-1.330;2023-04-25T09:01:04;100270.47;;;12.80;76.30
48796;BME280;34607;48.520;-1.330;2023-04-25T09:03:38;100268.47;;;12.39;77.03
48796;BME280;34607;48.520;-1.330;2023-04-25T09:06:05;100258.84;;;12.29;76.12
48796;BME280;34607;48.520;-1.330;2023-04-25T09:08:33;100261.34;;;12.15;77.17
48796;BME280;34607;48.520;-1.330;2023-04-25T09:11:01;100268.25;;;12.16;77.79
48796;BME280;34607;48.520;-1.330;2023-04-25T09:13:28;100270.94;;;12.25;78.24
48796;BME280;34607;48.520;-1.330;2023-04-25T09:16:23;100265.56;;;12.02;76.88
48796;BME280;34607;48.520;-1.330;2023-04-25T09:19:21;100275.84;;;11.91;75.99
48796;BME280;34607;48.520;-1.330;2023-04-25T09:21:49;100263.66;;;11.89;77.01
48796;BME280;34607;48.520;-1.330;2023-04-25T09:24:16;100268.81;;;11.86;76.14
48796;BME280;34607;48.520;-1.330;2023-04-25T09:26:43;100269.50;;;11.68;76.50
48796;BME280;34607;48.520;-1.330;2023-04-25T09:29:10;100273.78;;;11.62;77.02
48796;BME280;34607;48.520;-1.330;2023-04-25T09:31:42;100275.50;;;11.60;76.78
48796;BME280;34607;48.520;-1.330;2023-04-25T09:34:10;100288.66;;;11.80;77.79
48796;BME280;34607;48.520;-1.330;2023-04-25T09:36:45;100276.78;;;11.99;75.69
48796;BME280;34607;48.520;-1.330;2023-04-25T09:39:28;100276.34;;;12.53;74.97
48796;BME280;34607;48.520;-1.330;2023-04-25T09:42:03;100275.34;;;12.34;74.10
48796;BME280;34607;48.520;-1.330;2023-04-25T09:44:31;100278.94;;;12.53;74.16
48796;BME280;34607;48.520;-1.330;2023-04-25T09:46:59;100274.69;;;12.61;73.80
48796;BME280;34607;48.520;-1.330;2023-04-25T09:49:29;100271.16;;;12.54;73.31
48796;BME280;34607;48.520;-1.330;2023-04-25T09:52:03;100271.97;;;12.44;74.36
48796;BME280;34607;48.520;-1.330;2023-04-25T09:54:48;100273.69;;;12.45;74.69
48796;BME280;34607;48.520;-1.330;2023-04-25T09:57:23;100268.34;;;12.25;74.77
48796;BME280;34607;48.520;-1.330;2023-04-25T09:59:53;100247.50;;;12.17;74.86
48796;BME280;34607;48.520;-1.330;2023-04-25T10:02:25;100265.25;;;12.83;74.87
48796;BME280;34607;48.520;-1.330;2023-04-25T10:04:56;100261.28;;;13.59;73.56
48796;BME280;34607;48.520;-1.330;2023-04-25T10:07:30;100261.31;;;13.79;71.81
48796;BME280;34607;48.520;-1.330;2023-04-25T10:10:01;100260.47;;;14.07;70.45
48796;BME280;34607;48.520;-1.330;2023-04-25T10:12:28;100247.44;;;13.79;71.44
48796;BME280;34607;48.520;-1.330;2023-04-25T10:14:57;100269.16;;;13.90;71.63
48796;BME280;34607;48.520;-1.330;2023-04-25T10:17:27;100267.44;;;14.29;70.90
48796;BME280;34607;48.520;-1.330;2023-04-25T10:19:54;100273.50;;;14.13;70.53
48796;BME280;34607;48.520;-1.330;2023-04-25T10:22:29;100274.38;;;14.07;70.79
48796;BME280;34607;48.520;-1.330;2023-04-25T10:24:57;100276.06;;;13.76;70.40
48796;BME280;34607;48.520;-1.330;2023-04-25T10:27:27;100280.31;;;13.44;71.58
48796;BME280;34607;48.520;-1.330;2023-04-25T10:30:00;100260.16;;;13.02;71.46
48796;BME280;34607;48.520;-1.330;2023-04-25T10:32:32;100275.78;;;13.03;72.65
48796;BME280;34607;48.520;-1.330;2023-04-25T10:35:10;100286.97;;;12.87;72.01
48796;BME280;34607;48.520;-1.330;2023-04-25T10:37:37;100273.13;;;12.91;72.78
48796;BME280;34607;48.520;-1.330;2023-04-25T10:40:08;100286.13;;;12.92;72.32
48796;BME280;34607;48.520;-1.330;2023-04-25T10:42:36;100278.25;;;12.79;72.05
48796;BME280;34607;48.520;-1.330;2023-04-25T10:45:05;100267.94;;;12.99;71.97
48796;BME280;34607;48.520;-1.330;2023-04-25T10:47:43;100273.41;;;13.53;71.01
48796;BME280;34607;48.520;-1.330;2023-04-25T10:50:14;100279.56;;;13.78;70.19
48796;BME280;34607;48.520;-1.330;2023-04-25T10:52:42;100276.06;;;13.76;68.92
48796;BME280;34607;48.520;-1.330;2023-04-25T10:55:09;100280.34;;;13.47;69.72
48796;BME280;34607;48.520;-1.330;2023-04-25T10:57:38;100282.06;;;13.44;69.40
48796;BME280;34607;48.520;-1.330;2023-04-25T11:00:08;100273.41;;;13.51;69.24
48796;BME280;34607;48.520;-1.330;2023-04-25T11:02:45;100269.97;;;13.74;68.47
48796;BME280;34607;48.520;-1.330;2023-04-25T11:05:22;100279.59;;;13.93;68.58
48796;BME280;34607;48.520;-1.330;2023-04-25T11:07:51;100284.78;;;14.15;68.76
48796;BME280;34607;48.520;-1.330;2023-04-25T11:10:20;100277.84;;;14.04;68.73
48796;BME280;34607;48.520;-1.330;2023-04-25T11:12:47;100269.16;;;14.46;68.60
48796;BME280;34607;48.520;-1.330;2023-04-25T11:15:14;100270.03;;;14.72;66.63
48796;BME280;34607;48.520;-1.330;2023-04-25T11:17:41;100257.59;;;15.45;65.55
48796;BME280;34607;48.520;-1.330;2023-04-25T11:20:12;100249.84;;;15.30;64.61
48796;BME280;34607;48.520;-1.330;2023-04-25T11:22:39;100259.53;;;15.03;65.15
48796;BME280;34607;48.520;-1.330;2023-04-25T11:25:08;100275.16;;;14.98;65.49
48796;BME280;34607;48.520;-1.330;2023-04-25T11:27:38;100285.66;;;14.82;66.21
48796;BME280;34607;48.520;-1.330;2023-04-25T11:30:13;100263.09;;;14.34;65.84
48796;BME280;34607;48.520;-1.330;2023-04-25T11:32:41;100267.44;;;14.32;67.38
48796;BME280;34607;48.520;-1.330;2023-04-25T11:35:10;100270.03;;;14.26;67.23
48796;BME280;34607;48.520;-1.330;2023-04-25T11:37:39;100271.78;;;14.07;67.66
48796;BME280;34607;48.520;-1.330;2023-04-25T11:40:07;100277.00;;;14.07;68.29
48796;BME280;34607;48.520;-1.330;2023-04-25T11:42:37;100273.50;;;13.99;68.84
48796;BME280;34607;48.520;-1.330;2023-04-25T11:45:05;100270.03;;;14.15;68.81
48796;BME280;34607;48.520;-1.330;2023-04-25T11:47:33;100237.03;;;13.80;67.74
48796;BME280;34607;48.520;-1.330;2023-04-25T11:50:02;100269.16;;;13.93;69.13
48796;BME280;34607;48.520;-1.330;2023-04-25T11:52:38;100270.88;;;13.96;68.82
48796;BME280;34607;48.520;-1.330;2023-04-25T11:55:07;100263.94;;;13.90;68.24
48796;BME280;34607;48.520;-1.330;2023-04-25T11:57:34;100267.41;;;13.77;68.49
48796;BME280;34607;48.520;-1.330;2023-04-25T12:00:12;100269.09;;;13.64;66.79
48796;BME280;34607;48.520;-1.330;2023-04-25T12:02:41;100276.03;;;13.60;68.21
48796;BME280;34607;48.520;-1.330;2023-04-25T12:05:08;100283.88;;;13.80;67.92
48796;BME280;34607;48.520;-1.330;2023-04-25T12:07:37;100278.72;;;14.00;67.65
48796;BME280;34607;48.520;-1.330;2023-04-25T12:10:05;100279.59;;;14.16;66.84
48796;BME280;34607;48.520;-1.330;2023-04-25T12:12:33;100270.91;;;14.14;65.91
48796;BME280;34607;48.520;-1.330;2023-04-25T12:15:09;100282.19;;;14.44;65.96
48796;BME280;34607;48.520;-1.330;2023-04-25T12:17:36;100279.56;;;14.58;64.97
48796;BME280;34607;48.520;-1.330;2023-04-25T12:20:09;100283.06;;;14.55;64.88
48796;BME280;34607;48.520;-1.330;2023-04-25T12:22:37;100282.19;;;14.64;64.69
48796;BME280;34607;48.520;-1.330;2023-04-25T12:25:10;100269.97;;;14.97;65.18
48796;BME280;34607;48.520;-1.330;2023-04-25T12:27:38;100263.53;;;15.78;63.37
48796;BME280;34607;48.520;-1.330;2023-04-25T12:30:09;100268.59;;;16.03;63.07
48796;BME280;34607;48.520;-1.330;2023-04-25T12:32:37;100273.72;;;16.15;63.34
48796;BME280;34607;48.520;-1.330;2023-04-25T12:35:05;100272.16;;;15.91;63.44
48796;BME280;34607;48.520;-1.330;2023-04-25T12:37:32;100273.81;;;16.01;63.37
48796;BME280;34607;48.520;-1.330;2023-04-25T12:40:00;100270.19;;;16.19;62.47
48796;BME280;34607;48.520;-1.330;2023-04-25T12:42:28;100258.91;;;16.14;61.30
48796;BME280;34607;48.520;-1.330;2023-04-25T12:44:56;100258.22;;;15.90;62.44
48796;BME280;34607;48.520;-1.330;2023-04-25T12:47:23;100265.25;;;15.82;62.28
48796;BME280;34607;48.520;-1.330;2023-04-25T12:49:50;100257.31;;;15.93;62.16
48796;BME280;34607;48.520;-1.330;2023-04-25T12:52:17;100269.63;;;15.77;60.70
48796;BME280;34607;48.520;-1.330;2023-04-25T12:54:44;100261.09;;;15.40;61.00
48796;BME280;34607;48.520;-1.330;2023-04-25T12:57:12;100261.94;;;15.51;60.96
48796;BME280;34607;48.520;-1.330;2023-04-25T12:59:39;100265.34;;;15.59;61.42
48796;BME280;34607;48.520;-1.330;2023-04-25T13:02:06;100266.22;;;15.61;61.26
48796;BME280;34607;48.520;-1.330;2023-04-25T13:04:33;100247.91;;;15.66;60.95
48796;BME280;34607;48.520;-1.330;2023-04-25T13:07:00;100235.91;;;15.37;60.62
48796;BME280;34607;48.520;-1.330;2023-04-25T13:09:27;100249.72;;;15.54;60.76
48796;BME280;34607;48.520;-1.330;2023-04-25T13:11:55;100259.19;;;15.76;60.39
48796;BME280;34607;48.520;-1.330;2023-04-25T13:14:24;100257.47;;;15.70;60.88
48796;BME280;34607;48.520;-1.330;2023-04-25T13:16:51;100251.34;;;15.72;61.36
48796;BME280;34607;48.520;-1.330;2023-04-25T13:19:20;100252.13;;;15.91;60.75
48796;BME280;34607;48.520;-1.330;2023-04-25T13:21:47;100253.84;;;15.94;60.33
48796;BME280;34607;48.520;-1.330;2023-04-25T13:24:14;100252.28;;;15.61;60.55
48796;BME280;34607;48.520;-1.330;2023-04-25T13:26:41;100248.03;;;15.47;61.10
48796;BME280;34607;48.520;-1.330;2023-04-25T13:29:08;100243.75;;;15.35;61.26
48796;BME280;34607;48.520;-1.330;2023-04-25T13:31:36;100234.38;;;14.85;61.94
48796;BME280;34607;48.520;-1.330;2023-04-25T13:34:03;100237.91;;;14.55;63.02
48796;BME280;34607;48.520;-1.330;2023-04-25T13:36:30;100237.91;;;14.47;62.46
48796;BME280;34607;48.520;-1.330;2023-04-25T13:38:58;100242.25;;;14.28;63.11
48796;BME280;34607;48.520;-1.330;2023-04-25T13:41:25;100242.25;;;14.43;63.08
48796;BME280;34607;48.520;-1.330;2023-04-25T13:43:52;100236.19;;;14.60;62.42
48796;BME280;34607;48.520;-1.330;2023-04-25T13:46:19;100225.69;;;14.89;62.76
48796;BME280;34607;48.520;-1.330;2023-04-25T13:48:48;100222.13;;;15.09;61.43
48796;BME280;34607;48.520;-1.330;2023-04-25T13:51:16;100212.53;;;15.11;61.80
48796;BME280;34607;48.520;-1.330;2023-04-25T13:53:43;100221.13;;;15.28;61.34
48796;BME280;34607;48.520;-1.330;2023-04-25T13:56:11;100228.09;;;15.29;61.91
48796;BME280;34607;48.520;-1.330;2023-04-25T13:58:38;100215.97;;;15.17;62.39
48796;BME280;34607;48.520;-1.330;2023-04-25T14:01:05;100215.25;;;14.86;62.42
48796;BME280;34607;48.520;-1.330;2023-04-25T14:03:33;100226.59;;;14.70;63.01
48796;BME280;34607;48.520;-1.330;2023-04-25T14:06:01;100216.19;;;14.64;63.12
48796;BME280;34607;48.520;-1.330;2023-04-25T14:08:30;100220.50;;;14.71;63.05
48796;BME280;34607;48.520;-1.330;2023-04-25T14:10:57;100219.66;;;14.64;63.32
48796;BME280;34607;48.520;-1.330;2023-04-25T14:13:24;100220.50;;;14.75;63.40
48796;BME280;34607;48.520;-1.330;2023-04-25T14:15:51;100212.66;;;14.83;63.30
48796;BME280;34607;48.520;-1.330;2023-04-25T14:18:18;100216.16;;;14.76;62.82
48796;BME280;34607;48.520;-1.330;2023-04-25T14:20:45;100217.94;;;14.60;63.40
48796;BME280;34607;48.520;-1.330;2023-04-25T14:23:14;100223.13;;;14.55;63.53
48796;BME280;34607;48.520;-1.330;2023-04-25T14:25:41;100226.63;;;14.50;63.87
48796;BME280;34607;48.520;-1.330;2023-04-25T14:28:09;100225.75;;;14.41;64.01
48796;BME280;34607;48.520;-1.330;2023-04-25T14:30:36;100227.50;;;14.27;63.86
48796;BME280;34607;48.520;-1.330;2023-04-25T14:33:03;100229.25;;;14.31;63.92
48796;BME280;34607;48.520;-1.330;2023-04-25T14:35:30;100228.38;;;14.21;63.67
48796;BME280;34607;48.520;-1.330;2023-04-25T14:37:57;100231.84;;;14.00;64.60
48796;BME280;34607;48.520;-1.330;2023-04-25T14:40:26;100221.44;;;13.96;65.36
48796;BME280;34607;48.520;-1.330;2023-04-25T14:42:53;100222.31;;;13.90;65.02
48796;BME280;34607;48.520;-1.330;2023-04-25T14:45:21;100218.81;;;13.91;65.05
48796;BME280;34607;48.520;-1.330;2023-04-25T14:47:48;100219.69;;;13.82;65.72
48796;BME280;34607;48.520;-1.330;2023-04-25T14:50:15;100219.69;;;13.84;65.77
48796;BME280;34607;48.520;-1.330;2023-04-25T14:52:42;100219.69;;;13.89;65.59
48796;BME280;34607;48.520;-1.330;2023-04-25T14:55:10;100221.44;;;13.88;65.47
48796;BME280;34607;48.520;-1.330;2023-04-25T14:57:39;100227.50;;;13.78;65.46
48796;BME280;34607;48.520;-1.330;2023-04-25T15:00:07;100229.22;;;13.82;65.52
48796;BME280;34607;48.520;-1.330;2023-04-25T15:02:35;100232.69;;;13.84;65.42
48796;BME280;34607;48.520;-1.330;2023-04-25T15:05:02;100224.88;;;13.82;65.99
48796;BME280;34607;48.520;-1.330;2023-04-25T15:07:29;100221.41;;;13.80;65.71
48796;BME280;34607;48.520;-1.330;2023-04-25T15:09:56;100222.31;;;13.78;66.60
48796;BME280;34607;48.520;-1.330;2023-04-25T15:12:23;100220.56;;;14.01;66.48
48796;BME280;34607;48.520;-1.330;2023-04-25T15:14:53;100218.84;;;14.19;66.08
48796;BME280;34607;48.520;-1.330;2023-04-25T15:17:20;100216.22;;;14.30;65.44
48796;BME280;34607;48.520;-1.330;2023-04-25T15:19:47;100220.53;;;14.43;65.03
48796;BME280;34607;48.520;-1.330;2023-04-25T15:22:14;100226.63;;;14.47;65.01
48796;BME280;34607;48.520;-1.330;2023-04-25T15:24:41;100225.72;;;14.57;65.08
48796;BME280;34607;48.520;-1.330;2023-04-25T15:27:08;100212.69;;;14.57;64.79
48796;BME280;34607;48.520;-1.330;2023-04-25T15:29:36;100217.06;;;14.44;64.67
48796;BME280;34607;48.520;-1.330;2023-04-25T15:32:04;100219.66;;;14.41;64.93
48796;BME280;34607;48.520;-1.330;2023-04-25T15:34:31;100215.34;;;14.45;64.93
48796;BME280;34607;48.520;-1.330;2023-04-25T15:36:58;100203.16;;;14.47;64.45
48796;BME280;34607;48.520;-1.330;2023-04-25T15:39:26;100205.78;;;14.50;64.58
48796;BME280;34607;48.520;-1.330;2023-04-25T15:41:53;100214.47;;;14.35;63.93
48796;BME280;34607;48.520;-1.330;2023-04-25T15:44:20;100197.13;;;14.29;64.49
48796;BME280;34607;48.520;-1.330;2023-04-25T15:46:47;100203.19;;;14.28;64.82
48796;BME280;34607;48.520;-1.330;2023-04-25T15:49:16;100197.97;;;14.28;64.83
48796;BME280;34607;48.520;-1.330;2023-04-25T15:51:44;100198.84;;;14.18;65.45
48796;BME280;34607;48.520;-1.330;2023-04-25T15:54:11;100202.31;;;14.23;65.40
48796;BME280;34607;48.520;-1.330;2023-04-25T15:56:38;100184.09;;;14.17;65.63
48796;BME280;34607;48.520;-1.330;2023-04-25T15:59:05;100190.16;;;14.27;65.50
48796;BME280;34607;48.520;-1.330;2023-04-25T16:01:33;100191.06;;;14.21;65.79
48796;BME280;34607;48.520;-1.330;2023-04-25T16:04:00;100196.25;;;14.21;65.29
48796;BME280;34607;48.520;-1.330;2023-04-25T16:06:28;100188.44;;;14.22;65.12
48796;BME280;34607;48.520;-1.330;2023-04-25T16:08:55;100192.78;;;14.11;65.04
48796;BME280;34607;48.520;-1.330;2023-04-25T16:11:23;100184.13;;;14.11;65.33
48796;BME280;34607;48.520;-1.330;2023-04-25T16:13:50;100179.78;;;14.03;65.63
48796;BME280;34607;48.520;-1.330;2023-04-25T16:16:17;100180.66;;;14.02;65.50
48796;BME280;34607;48.520;-1.330;2023-04-25T16:18:44;100184.97;;;13.96;64.99
48796;BME280;34607;48.520;-1.330;2023-04-25T16:21:11;100179.78;;;13.77;64.45
48796;BME280;34607;48.520;-1.330;2023-04-25T16:23:42;100180.63;;;13.68;64.73
48796;BME280;34607;48.520;-1.330;2023-04-25T16:26:10;100175.41;;;13.64;64.90
48796;BME280;34607;48.520;-1.330;2023-04-25T16:28:37;100160.66;;;13.43;65.26
48796;BME280;34607;48.520;-1.330;2023-04-25T16:31:04;100163.28;;;13.55;65.54
48796;BME280;34607;48.520;-1.330;2023-04-25T16:33:31;100165.88;;;13.55;65.12
48796;BME280;34607;48.520;-1.330;2023-04-25T16:35:58;100166.75;;;13.56;65.36
48796;BME280;34607;48.520;-1.330;2023-04-25T16:38:26;100157.22;;;13.61;65.41
48796;BME280;34607;48.520;-1.330;2023-04-25T16:40:54;100169.34;;;13.60;65.49
48796;BME280;34607;48.520;-1.330;2023-04-25T16:43:21;100163.31;;;13.67;65.80
48796;BME280;34607;48.520;-1.330;2023-04-25T16:45:48;100153.75;;;13.76;65.55
48796;BME280;34607;48.520;-1.330;2023-04-25T16:48:15;100171.13;;;13.83;65.50
48796;BME280;34607;48.520;-1.330;2023-04-25T16:50:45;100160.72;;;13.83;65.09
48796;BME280;34607;48.520;-1.330;2023-04-25T16:53:12;100159.84;;;13.78;65.42
48796;BME280;34607;48.520;-1.330;2023-04-25T16:55:39;100152.88;;;13.80;65.64
48796;BME280;34607;48.520;-1.330;2023-04-25T16:58:08;100157.25;;;13.78;65.70
48796;BME280;34607;48.520;-1.330;2023-04-25T17:00:36;100159.81;;;13.72;65.67
48796;BME280;34607;48.520;-1.330;2023-04-25T17:03:03;100156.34;;;13.63;65.82
48796;BME280;34607;48.520;-1.330;2023-04-25T17:05:30;100155.47;;;13.60;65.74
48796;BME280;34607;48.520;-1.330;2023-04-25T17:07:58;100159.81;;;13.64;65.83
48796;BME280;34607;48.520;-1.330;2023-04-25T17:10:25;100158.06;;;13.71;66.06
48796;BME280;34607;48.520;-1.330;2023-04-25T17:12:52;100158.09;;;13.77;66.03
48796;BME280;34607;48.520;-1.330;2023-04-25T17:15:21;100153.75;;;13.77;66.21
48796;BME280;34607;48.520;-1.330;2023-04-25T17:17:48;100142.50;;;13.81;65.97
48796;BME280;34607;48.520;-1.330;2023-04-25T17:20:15;100151.16;;;13.70;65.88
48796;BME280;34607;48.520;-1.330;2023-04-25T17:22:43;100140.72;;;13.63;65.83
48796;BME280;34607;48.520;-1.330;2023-04-25T17:25:10;100152.88;;;13.64;66.02
48796;BME280;34607;48.520;-1.330;2023-04-25T17:27:37;100147.69;;;13.61;66.59
48796;BME280;34607;48.520;-1.330;2023-04-25T17:30:06;100141.59;;;13.52;66.28
48796;BME280;34607;48.520;-1.330;2023-04-25T17:32:34;100156.31;;;13.45;66.51
48796;BME280;34607;48.520;-1.330;2023-04-25T17:35:01;100148.53;;;13.39;66.54
48796;BME280;34607;48.520;-1.330;2023-04-25T17:37:28;100149.38;;;13.38;66.67
48796;BME280;34607;48.520;-1.330;2023-04-25T17:39:56;100146.78;;;13.35;66.65
48796;BME280;34607;48.520;-1.330;2023-04-25T17:42:23;100149.38;;;13.35;66.60
48796;BME280;34607;48.520;-1.330;2023-04-25T17:44:50;100145.91;;;13.33;67.04
48796;BME280;34607;48.520;-1.330;2023-04-25T17:47:19;100149.34;;;13.27;66.99
48796;BME280;34607;48.520;-1.330;2023-04-25T17:49:47;100150.22;;;13.30;67.30
48796;BME280;34607;48.520;-1.330;2023-04-25T17:52:14;100154.53;;;13.28;67.63
48796;BME280;34607;48.520;-1.330;2023-04-25T17:54:42;100144.13;;;13.22;67.72
48796;BME280;34607;48.520;-1.330;2023-04-25T17:57:09;100148.50;;;13.34;67.81
48796;BME280;34607;48.520;-1.330;2023-04-25T17:59:36;100149.34;;;13.33;67.83
48796;BME280;34607;48.520;-1.330;2023-04-25T18:02:03;100157.97;;;13.24;67.97
48796;BME280;34607;48.520;-1.330;2023-04-25T18:04:30;100142.34;;;13.09;67.99
48796;BME280;34607;48.520;-1.330;2023-04-25T18:06:59;100150.16;;;13.09;68.45
48796;BME280;34607;48.520;-1.330;2023-04-25T18:09:26;100138.00;;;13.00;68.11
48796;BME280;34607;48.520;-1.330;2023-04-25T18:11:53;100140.59;;;12.97;68.53
48796;BME280;34607;48.520;-1.330;2023-04-25T18:14:21;100141.47;;;12.96;68.54
48796;BME280;34607;48.520;-1.330;2023-04-25T18:16:50;100137.13;;;12.97;68.64
48796;BME280;34607;48.520;-1.330;2023-04-25T18:19:18;100131.88;;;12.84;68.54
48796;BME280;34607;48.520;-1.330;2023-04-25T18:21:47;100148.31;;;12.83;69.01
48796;BME280;34607;48.520;-1.330;2023-04-25T18:24:16;100120.56;;;12.65;69.22
48796;BME280;34607;48.520;-1.330;2023-04-25T18:26:44;100130.94;;;12.65;69.17
48796;BME280;34607;48.520;-1.330;2023-04-25T18:29:13;100137.84;;;12.59;69.06
48796;BME280;34607;48.520;-1.330;2023-04-25T18:31:41;100136.97;;;12.63;69.53
48796;BME280;34607;48.520;-1.330;2023-04-25T18:34:08;100134.38;;;12.63;69.23
48796;BME280;34607;48.520;-1.330;2023-04-25T18:36:35;100081.44;;;12.24;69.31
48796;BME280;34607;48.520;-1.330;2023-04-25T18:39:03;100135.25;;;12.62;69.56
48796;BME280;34607;48.520;-1.330;2023-04-25T18:41:36;100138.72;;;12.62;69.26
48796;BME280;34607;48.520;-1.330;2023-04-25T18:44:03;100144.75;;;12.55;69.30
48796;BME280;34607;48.520;-1.330;2023-04-25T18:46:31;100122.16;;;12.35;69.42
48796;BME280;34607;48.520;-1.330;2023-04-25T18:48:59;100157.72;;;12.52;69.53
48796;BME280;34607;48.520;-1.330;2023-04-25T18:51:27;100152.50;;;12.50;69.84
48796;BME280;34607;48.520;-1.330;2023-04-25T18:53:56;100150.75;;;12.45;69.71
48796;BME280;34607;48.520;-1.330;2023-04-25T18:56:23;100165.50;;;12.52;70.24
48796;BME280;34607;48.520;-1.330;2023-04-25T18:58:53;100163.75;;;12.45;70.40
48796;BME280;34607;48.520;-1.330;2023-04-25T19:01:20;100163.75;;;12.43;70.55
48796;BME280;34607;48.520;-1.330;2023-04-25T19:03:48;100162.88;;;12.41;70.67
48796;BME280;34607;48.520;-1.330;2023-04-25T19:06:20;100147.22;;;12.32;70.82
48796;BME280;34607;48.520;-1.330;2023-04-25T19:08:48;100149.81;;;12.32;70.94
48796;BME280;34607;48.520;-1.330;2023-04-25T19:11:16;100156.69;;;12.27;70.88
48796;BME280;34607;48.520;-1.330;2023-04-25T19:13:44;100158.41;;;12.20;71.44
48796;BME280;34607;48.520;-1.330;2023-04-25T19:16:12;100166.13;;;12.09;71.78
48796;BME280;34607;48.520;-1.330;2023-04-25T19:18:40;100167.84;;;12.10;71.82
48796;BME280;34607;48.520;-1.330;2023-04-25T19:21:07;100164.41;;;12.13;71.81
48796;BME280;34607;48.520;-1.330;2023-04-25T19:23:34;100176.53;;;12.12;71.88
48796;BME280;34607;48.520;-1.330;2023-04-25T19:26:01;100170.47;;;12.12;71.88
48796;BME280;34607;48.520;-1.330;2023-04-25T19:28:29;100171.28;;;12.06;71.90
48796;BME280;34607;48.520;-1.330;2023-04-25T19:30:56;100184.22;;;12.00;72.20
48796;BME280;34607;48.520;-1.330;2023-04-25T19:33:25;100182.47;;;11.94;72.45
48796;BME280;34607;48.520;-1.330;2023-04-25T19:35:53;100185.84;;;11.90;72.82
48796;BME280;34607;48.520;-1.330;2023-04-25T19:38:20;100182.31;;;11.84;72.57
48796;BME280;34607;48.520;-1.330;2023-04-25T19:40:47;100175.28;;;11.67;73.34
48796;BME280;34607;48.520;-1.330;2023-04-25T19:43:14;100183.09;;;11.75;73.30
48796;BME280;34607;48.520;-1.330;2023-04-25T19:45:42;100178.81;;;11.80;73.21
48796;BME280;34607;48.520;-1.330;2023-04-25T19:48:09;100176.19;;;11.72;73.41
48796;BME280;34607;48.520;-1.330;2023-04-25T19:50:40;100183.06;;;11.67;73.53
48796;BME280;34607;48.520;-1.330;2023-04-25T19:53:07;100203.84;;;11.73;73.36
48796;BME280;34607;48.520;-1.330;2023-04-25T19:55:35;100205.53;;;11.68;73.60
48796;BME280;34607;48.520;-1.330;2023-04-25T19:58:03;100198.63;;;11.67;73.79
48796;BME280;34607;48.520;-1.330;2023-04-25T20:00:31;100208.16;;;11.73;73.79
48796;BME280;34607;48.520;-1.330;2023-04-25T20:02:58;100182.09;;;11.59;74.08
48796;BME280;34607;48.520;-1.330;2023-04-25T20:05:25;100203.81;;;11.67;74.25
48796;BME280;34607;48.520;-1.330;2023-04-25T20:07:54;100211.63;;;11.75;74.40
48796;BME280;34607;48.520;-1.330;2023-04-25T20:10:21;100212.47;;;11.69;74.46